Time;durP1;ratioP1;P1;durP2;ratioP2;P2;SDS_P1;SDS_P2;PMS_P1;PMS_P2;Temp;Humidity;BMP_temperature;BMP_pressure;BME280_temperature;BME280_humidity;BME280_pressure;Samples;Min_cycle;Max_cycle;Signal;HPM_P1;HPM_P2
2023/10/16 00:00:45;;;;;;;6.63;4.93;;;;;;;7.32;58.64;96840.78;4930523;29;20468;-73
2023/10/16 00:03:12;;;;;;;5.47;3.77;;;;;;;7.25;58.62;96828.72;4930794;29;20457;-72
2023/10/16 00:05:44;;;;;;;6.50;3.80;;;;;;;7.12;59.16;96835.16;4931139;29;20435;-71
2023/10/16 00:08:16;;;;;;;5.77;3.40;;;;;;;7.16;58.42;96831.59;4931025;29;20411;-71
2023/10/16 00:10:43;;;;;;;4.17;3.20;;;;;;;7.13;58.45;96829.03;4931245;29;20435;-71
2023/10/16 00:13:11;;;;;;;6.60;5.47;;;;;;;7.02;58.67;96818.00;4931363;29;20844;-71
2023/10/16 00:15:44;;;;;;;5.80;3.77;;;;;;;6.86;59.14;96817.50;4931339;29;20417;-71
2023/10/16 00:18:17;;;;;;;5.80;3.63;;;;;;;6.76;59.35;96817.69;4931254;29;20411;-71
2023/10/16 00:20:43;;;;;;;5.00;4.17;;;;;;;6.82;59.45;96818.44;4931249;29;20462;-72
2023/10/16 00:23:10;;;;;;;5.60;4.30;;;;;;;6.69;59.37;96818.72;4931540;29;20530;-71
2023/10/16 00:25:39;;;;;;;8.97;3.57;;;;;;;6.78;59.32;96813.31;4930600;29;20470;-71
2023/10/16 00:28:08;;;;;;;5.07;3.70;;;;;;;6.77;59.34;96826.38;4930561;29;20418;-72
2023/10/16 00:30:38;;;;;;;5.47;4.60;;;;;;;6.85;59.18;96815.75;4930680;29;20431;-71
2023/10/16 00:33:06;;;;;;;4.93;3.87;;;;;;;6.90;58.62;96817.38;4930800;29;20425;-72
2023/10/16 00:35:32;;;;;;;7.10;4.67;;;;;;;6.78;59.25;96812.44;4930660;29;20497;-72
2023/10/16 00:37:58;;;;;;;4.87;3.70;;;;;;;6.72;59.39;96812.56;4930452;29;20423;-72
2023/10/16 00:40:33;;;;;;;9.33;4.37;;;;;;;6.89;58.96;96805.22;4930152;29;20217;-72
2023/10/16 00:43:06;;;;;;;4.60;4.20;;;;;;;6.73;59.49;96803.84;4930607;29;20790;-72
2023/10/16 00:45:59;;;;;;;10.10;5.70;;;;;;;6.71;59.33;96803.03;4930821;29;20419;-73
2023/10/16 00:48:25;;;;;;;6.63;4.70;;;;;;;6.85;59.05;96798.38;4930321;29;20457;-71
2023/10/16 00:50:50;;;;;;;4.77;3.83;;;;;;;6.69;59.53;96797.00;4930847;29;20466;-71
2023/10/16 00:53:21;;;;;;;5.37;4.40;;;;;;;6.67;59.54;96804.84;4930470;29;20175;-72
2023/10/16 00:55:51;;;;;;;4.90;4.40;;;;;;;6.75;59.18;96799.44;4930616;29;20182;-74
2023/10/16 00:58:17;;;;;;;5.40;3.60;;;;;;;6.54;59.71;96792.97;4947977;29;20422;-72
2023/10/16 01:00:46;;;;;;;5.40;4.07;;;;;;;6.73;59.53;96788.19;4950023;28;20476;-72
2023/10/16 01:03:13;;;;;;;5.83;3.80;;;;;;;6.61;59.81;96778.03;4954259;29;20174;-72
2023/10/16 01:05:42;;;;;;;6.53;4.20;;;;;;;6.38;60.20;96789.84;4955413;29;20480;-71
2023/10/16 01:08:08;;;;;;;8.83;3.70;;;;;;;6.15;60.91;96790.31;4951726;29;20418;-71
2023/10/16 01:10:34;;;;;;;6.30;4.10;;;;;;;6.43;59.84;96781.94;4949181;28;20465;-71
2023/10/16 01:13:12;;;;;;;7.27;4.40;;;;;;;6.52;59.65;96769.53;4948937;29;20465;-71
2023/10/16 01:15:43;;;;;;;3.93;3.50;;;;;;;6.36;60.26;96770.75;4949834;29;20424;-73
2023/10/16 01:18:11;;;;;;;7.63;4.33;;;;;;;6.19;60.84;96781.56;4949118;29;20429;-72
2023/10/16 01:20:38;;;;;;;6.73;4.60;;;;;;;6.14;61.01;96780.75;4949019;28;20468;-72
2023/10/16 01:23:04;;;;;;;6.20;4.60;;;;;;;6.00;61.27;96781.06;4931831;29;20426;-71
2023/10/16 01:25:30;;;;;;;7.23;4.90;;;;;;;6.24;61.00;96773.63;4948980;29;20770;-71
2023/10/16 01:27:55;;;;;;;6.93;4.00;;;;;;;6.06;61.83;96775.72;4948682;29;20421;-71
2023/10/16 01:30:21;;;;;;;5.93;4.77;;;;;;;5.99;61.98;96768.91;4948847;28;20198;-71
2023/10/16 01:32:46;;;;;;;9.10;5.03;;;;;;;6.14;62.05;96770.34;4948664;29;20177;-72
2023/10/16 01:35:13;;;;;;;5.60;4.03;;;;;;;5.94;62.66;96755.97;4949005;29;20170;-71
2023/10/16 01:37:39;;;;;;;4.80;3.77;;;;;;;5.93;62.64;96759.44;4948988;29;20229;-72
2023/10/16 01:40:17;;;;;;;5.93;4.30;;;;;;;6.00;62.51;96762.81;4948620;28;20474;-72
2023/10/16 01:42:42;;;;;;;4.70;4.20;;;;;;;5.86;63.03;96765.66;4930007;29;20191;-73
2023/10/16 01:45:08;;;;;;;4.30;3.87;;;;;;;5.96;62.67;96755.94;4929514;29;20422;-72
2023/10/16 01:47:34;;;;;;;7.37;4.40;;;;;;;5.98;62.60;96750.72;4929371;29;20181;-72
2023/10/16 01:50:01;;;;;;;4.40;4.00;;;;;;;6.02;62.48;96757.56;4929139;29;20195;-72
2023/10/16 01:52:27;;;;;;;5.90;5.30;;;;;;;5.79;63.44;96768.38;4929427;29;20454;-72
2023/10/16 01:54:53;;;;;;;6.53;4.70;;;;;;;5.72;64.16;96755.50;4929659;29;20431;-72
2023/10/16 01:57:20;;;;;;;4.90;4.40;;;;;;;5.71;64.21;96751.16;4938716;29;20312;-72
2023/10/16 01:59:49;;;;;;;5.83;3.77;;;;;;;5.92;63.45;96747.28;4948255;28;20218;-71
2023/10/16 02:02:16;;;;;;;5.17;4.30;;;;;;;5.87;63.52;96749.13;4949139;29;20465;-72
2023/10/16 02:04:42;;;;;;;4.20;3.80;;;;;;;5.89;63.36;96751.72;4948848;29;20845;-72
2023/10/16 02:07:08;;;;;;;4.87;4.40;;;;;;;5.52;64.72;96750.66;4948631;29;20488;-72
2023/10/16 02:09:38;;;;;;;4.83;4.40;;;;;;;5.61;64.12;96746.19;4948275;28;20236;-72
2023/10/16 02:12:16;;;;;;;10.20;5.17;;;;;;;5.69;63.91;96739.94;4948578;29;20422;-72
2023/10/16 02:14:45;;;;;;;5.07;3.90;;;;;;;5.81;63.44;96740.56;4948663;29;20413;-72
2023/10/16 02:17:21;;;;;;;11.53;4.43;;;;;;;5.62;64.10;96732.25;4948578;29;20835;-72
2023/10/16 02:19:47;;;;;;;7.10;4.60;;;;;;;5.75;63.40;96725.09;4930844;29;20460;-72
2023/10/16 02:22:14;;;;;;;5.33;4.17;;;;;;;5.77;63.08;96726.78;4931209;29;20436;-72
2023/10/16 02:24:40;;;;;;;13.30;4.70;;;;;;;5.45;64.68;96720.41;4948895;29;20422;-72
2023/10/16 02:27:11;;;;;;;9.60;4.87;;;;;;;5.46;64.39;96731.72;4949501;29;20500;-71
2023/10/16 02:29:37;;;;;;;9.47;5.53;;;;;;;5.53;64.21;96725.50;4946775;28;20936;-72
2023/10/16 02:32:04;;;;;;;6.90;4.30;;;;;;;5.58;63.80;96726.28;4948552;29;20441;-72
2023/10/16 02:34:33;;;;;;;5.83;3.47;;;;;;;4.94;66.20;96727.38;4948809;29;20912;-72
2023/10/16 02:37:00;;;;;;;10.80;5.10;;;;;;;5.13;66.22;96733.16;4949021;29;20446;-72
2023/10/16 02:39:35;;;;;;;6.33;3.53;;;;;;;4.82;66.42;96734.53;4931739;28;20453;-72
2023/10/16 02:42:12;;;;;;;4.47;4.00;;;;;;;4.56;67.66;96726.25;4958006;29;20477;-72
2023/10/16 02:44:45;;;;;;;14.17;5.77;;;;;;;4.73;67.35;96729.47;4961036;29;20414;-72
2023/10/16 02:47:17;;;;;;;4.93;4.50;;;;;;;4.62;67.65;96742.63;4960653;29;20445;-72
2023/10/16 02:49:47;;;;;;;7.33;5.37;;;;;;;4.57;67.55;96735.78;4954210;28;20433;-72
2023/10/16 02:52:17;;;;;;;7.13;4.57;;;;;;;4.57;68.32;96740.97;4948639;29;20418;-71
2023/10/16 02:54:44;;;;;;;9.30;4.73;;;;;;;5.06;66.11;96737.63;4948460;29;20976;-72
2023/10/16 02:57:11;;;;;;;5.23;4.70;;;;;;;5.02;65.66;96736.78;4939444;29;20435;-72
2023/10/16 02:59:38;;;;;;;11.50;4.70;;;;;;;4.95;66.22;96734.31;4928382;29;20844;-73
2023/10/16 03:02:13;;;;;;;4.70;3.93;;;;;;;4.84;66.77;96739.69;4928660;29;20485;-71
2023/10/16 03:04:40;;;;;;;4.30;3.87;;;;;;;4.83;66.21;96737.97;4914678;29;20426;-72
2023/10/16 03:07:06;;;;;;;6.03;5.00;;;;;;;4.08;68.93;96752.03;4932263;29;20450;-71
2023/10/16 03:09:32;;;;;;;4.50;4.03;;;;;;;4.46;67.55;96735.94;4931850;29;20810;-72
2023/10/16 03:12:08;;;;;;;4.80;3.60;;;;;;;4.79;66.59;96734.56;4932411;29;20418;-72
2023/10/16 03:14:46;;;;;;;4.93;4.10;;;;;;;4.92;66.45;96740.44;4932531;29;20203;-70
2023/10/16 03:17:26;;;;;;;4.30;3.73;;;;;;;4.42;67.93;96745.53;4931211;29;20438;-72
2023/10/16 03:19:57;;;;;;;5.63;4.47;;;;;;;4.95;66.31;96739.53;4931884;29;20853;-72
2023/10/16 03:22:23;;;;;;;7.33;4.80;;;;;;;5.29;64.68;96732.88;4930906;29;20422;-72
2023/10/16 03:24:49;;;;;;;6.57;5.20;;;;;;;5.36;64.74;96733.59;4932127;29;20809;-72
2023/10/16 03:27:28;;;;;;;7.33;4.47;;;;;;;5.14;65.34;96730.53;4932288;29;20422;-72
2023/10/16 03:29:55;;;;;;;6.70;4.30;;;;;;;5.43;64.56;96732.63;4932064;29;20291;-72
2023/10/16 03:32:21;;;;;;;4.90;3.83;;;;;;;5.19;64.98;96733.91;4932006;29;20422;-72
2023/10/16 03:34:46;;;;;;;6.10;3.90;;;;;;;5.34;64.54;96732.78;4932301;29;20415;-72
2023/10/16 03:37:14;;;;;;;4.97;3.70;;;;;;;5.05;65.03;96735.88;4914737;29;20999;-72
2023/10/16 03:39:39;;;;;;;4.90;4.27;;;;;;;5.06;64.54;96735.88;4931221;29;20207;-71
2023/10/16 03:42:09;;;;;;;9.67;4.27;;;;;;;4.94;65.88;96732.59;4931989;29;20453;-72
2023/10/16 03:44:37;;;;;;;8.60;4.10;;;;;;;4.85;65.53;96731.88;4931863;29;20175;-72
2023/10/16 03:47:05;;;;;;;7.50;3.67;;;;;;;4.78;65.97;96732.84;4931663;29;20442;-71
2023/10/16 03:49:31;;;;;;;4.60;3.77;;;;;;;4.87;66.18;96721.47;4931444;29;20449;-73
2023/10/16 03:51:56;;;;;;;6.73;5.97;;;;;;;4.97;65.15;96722.16;4932964;29;20419;-71
2023/10/16 03:54:30;;;;;;;4.30;3.90;;;;;;;5.08;65.26;96725.44;4933137;29;20646;-72
2023/10/16 03:56:59;;;;;;;4.30;3.90;;;;;;;5.10;65.50;96715.84;4937350;29;20179;-72
2023/10/16 03:59:25;;;;;;;5.20;4.70;;;;;;;5.26;64.42;96712.09;4932804;28;20580;-73
2023/10/16 04:01:50;;;;;;;5.40;4.70;;;;;;;5.14;64.75;96714.91;4950655;29;20418;-70
2023/10/16 04:04:17;;;;;;;6.00;4.37;;;;;;;4.81;66.20;96719.78;4949123;29;20433;-71
2023/10/16 04:06:43;;;;;;;4.10;3.47;;;;;;;4.94;66.18;96717.88;4950664;29;20248;-71
2023/10/16 04:09:09;;;;;;;4.60;3.87;;;;;;;4.90;66.23;96717.94;4933166;28;20429;-71
2023/10/16 04:11:37;;;;;;;7.77;4.00;;;;;;;4.87;66.19;96711.91;4950392;29;20410;-70
2023/10/16 04:14:08;;;;;;;7.60;4.57;;;;;;;4.99;65.57;96704.78;4932861;28;20429;-72
2023/10/16 04:16:43;;;;;;;4.37;3.97;;;;;;;4.80;65.47;96709.44;4949856;29;20785;-72
2023/10/16 04:21:41;;;;;;;6.90;4.20;;;;;;;5.09;64.45;96696.78;4926948;29;20442;-72
2023/10/16 04:27:29;;;;;;;5.80;4.17;;;;;;;5.26;63.71;96693.03;4936001;29;20428;-72
2023/10/16 04:29:49;;;;;;;6.07;3.63;;;;;;;5.21;63.28;96687.06;4930245;29;20443;-73
2023/10/16 04:37:49;;;;;;;7.60;3.77;;;;;;;5.19;62.99;96681.00;4930977;29;20472;-74
2023/10/16 04:45:24;;;;;;;4.37;3.50;;;;;;;4.97;63.07;96672.75;4929115;29;20313;-73
2023/10/16 04:48:07;;;;;;;5.07;4.10;;;;;;;4.61;64.68;96675.94;4911878;29;20450;-74
2023/10/16 04:53:07;;;;;;;5.73;4.47;;;;;;;4.85;64.75;96674.66;4927800;29;20533;-74
2023/10/16 05:01:17;;;;;;;6.23;4.10;;;;;;;5.03;64.39;96675.22;4929633;29;20561;-72
2023/10/16 05:11:33;;;;;;;5.63;4.80;;;;;;;4.53;65.86;96664.78;4927473;29;20440;-77
2023/10/16 05:14:22;;;;;;;7.57;5.00;;;;;;;4.74;65.25;96662.72;4929636;29;20415;-76
2023/10/16 05:22:03;;;;;;;11.57;4.30;;;;;;;4.57;66.17;96665.59;4932902;29;20473;-69
2023/10/16 06:14:16;;;;;;;11.10;6.00;;;;;;;11.56;66.07;96653.63;4924288;29;20465;-69
2023/10/16 06:16:45;;;;;;;10.90;5.40;;;;;;;12.70;67.58;96645.81;4923295;29;20526;-69
2023/10/16 06:19:14;;;;;;;10.37;6.80;;;;;;;10.92;47.18;96656.38;4924463;29;20427;-69
2023/10/16 06:21:50;;;;;;;10.47;5.80;;;;;;;10.42;47.95;96653.97;4923873;29;20466;-70
2023/10/16 06:24:28;;;;;;;8.40;5.23;;;;;;;9.58;49.88;96660.59;4924062;29;21011;-71
2023/10/16 06:26:57;;;;;;;13.27;5.00;;;;;;;8.60;52.59;96670.03;4926214;29;20446;-70
2023/10/16 06:29:24;;;;;;;10.33;8.00;;;;;;;7.65;54.24;96665.81;4922813;29;20462;-70
2023/10/16 06:31:53;;;;;;;9.83;6.07;;;;;;;7.83;54.56;96677.50;4905065;29;21139;-68
2023/10/16 06:34:24;;;;;;;7.00;5.50;;;;;;;8.07;54.57;96668.09;4922946;29;20443;-70
2023/10/16 06:36:53;;;;;;;6.23;5.00;;;;;;;9.14;51.50;96671.69;4926583;29;20552;-70
2023/10/16 06:39:35;;;;;;;7.53;5.10;;;;;;;10.20;48.43;96670.53;4927856;29;20441;-72
2023/10/16 06:42:02;;;;;;;10.80;5.20;;;;;;;10.16;48.78;96672.44;4926334;29;20478;-69
2023/10/16 06:44:28;;;;;;;8.30;4.83;;;;;;;10.84;46.34;96667.16;4928656;29;20922;-70
2023/10/16 06:47:01;;;;;;;13.50;5.10;;;;;;;11.83;44.54;96659.47;4930486;29;20443;-70
2023/10/16 06:49:38;;;;;;;8.50;5.83;;;;;;;12.50;42.70;96657.31;4930505;29;20293;-70
2023/10/16 06:52:05;;;;;;;13.30;5.67;;;;;;;13.32;40.74;96656.81;4930304;29;20514;-68
2023/10/16 06:54:32;;;;;;;6.63;4.97;;;;;;;13.76;39.52;96659.81;4929607;29;20430;-71
2023/10/16 06:57:04;;;;;;;33.90;8.77;;;;;;;13.61;40.47;96657.97;4935790;29;20964;-70
2023/10/16 06:59:31;;;;;;;7.10;6.20;;;;;;;13.25;40.95;96655.38;4930291;29;20465;-70
2023/10/16 07:01:56;;;;;;;6.77;4.90;;;;;;;14.01;39.25;96655.88;4930325;29;20453;-70
2023/10/16 07:04:22;;;;;;;5.73;5.13;;;;;;;13.59;39.49;96659.84;4930177;29;21128;-69
2023/10/16 07:06:48;;;;;;;7.90;5.37;;;;;;;14.15;39.05;96653.34;4930608;29;20175;-69
2023/10/16 07:09:16;;;;;;;6.83;4.93;;;;;;;13.36;39.74;96662.81;4928523;29;20182;-69
2023/10/16 07:11:42;;;;;;;7.07;4.80;;;;;;;14.17;39.33;96659.41;4929085;29;20477;-71
2023/10/16 07:14:12;;;;;;;6.07;4.60;;;;;;;14.37;38.42;96660.09;4928746;29;20462;-70
2023/10/16 07:16:38;;;;;;;6.93;4.93;;;;;;;15.28;36.92;96666.41;4928389;29;20439;-70
2023/10/16 07:19:07;;;;;;;5.87;4.30;;;;;;;15.38;36.87;96662.31;4927442;29;20425;-71
2023/10/16 07:21:32;;;;;;;8.10;4.40;;;;;;;14.39;38.13;96660.88;4928697;29;20477;-70
2023/10/16 07:23:58;;;;;;;6.80;5.03;;;;;;;14.71;37.61;96660.88;4929020;29;20434;-70
2023/10/16 07:26:25;;;;;;;8.50;4.77;;;;;;;15.57;36.33;96655.94;4928421;29;20646;-72
2023/10/16 07:28:51;;;;;;;8.33;4.40;;;;;;;14.84;37.39;96658.44;4926628;29;20183;-69
2023/10/16 07:31:16;;;;;;;6.93;4.80;;;;;;;14.33;38.65;96662.03;4932760;29;20472;-70
2023/10/16 07:33:50;;;;;;;6.47;3.90;;;;;;;14.69;37.72;96657.47;4929829;29;20182;-69
2023/10/16 07:36:17;;;;;;;11.30;4.50;;;;;;;14.02;39.38;96660.22;4929134;29;20179;-69
2023/10/16 07:38:44;;;;;;;4.70;3.90;;;;;;;14.10;38.80;96667.72;4929201;29;20513;-70
2023/10/16 07:41:13;;;;;;;6.63;4.40;;;;;;;13.84;39.74;96659.44;4928490;29;20506;-69
2023/10/16 07:43:39;;;;;;;6.53;3.83;;;;;;;13.26;40.56;96662.38;4923483;29;20474;-70
2023/10/16 07:48:50;;;;;;;6.00;4.57;;;;;;;13.07;42.11;96662.44;4929564;29;20434;-69
2023/10/16 07:51:18;;;;;;;7.50;5.90;;;;;;;12.44;43.36;96665.47;4929345;29;20553;-71
2023/10/16 07:53:43;;;;;;;5.90;4.83;;;;;;;12.31;43.97;96667.84;4929271;29;20434;-70
2023/10/16 07:58:55;;;;;;;7.73;4.40;;;;;;;12.95;43.30;96663.91;4928555;29;20326;-68
2023/10/16 08:01:36;;;;;;;5.40;4.23;;;;;;;13.24;42.28;96666.88;4928916;29;20466;-70
2023/10/16 08:04:18;;;;;;;6.60;3.87;;;;;;;12.21;45.06;96661.28;4929093;29;20444;-69
2023/10/16 08:06:45;;;;;;;4.53;3.50;;;;;;;12.19;44.36;96663.13;4924692;29;20767;-68
2023/10/16 08:11:57;;;;;;;7.43;4.20;;;;;;;11.35;47.91;96670.34;4929340;29;20441;-69
2023/10/16 08:14:28;;;;;;;6.10;5.50;;;;;;;11.34;47.75;96674.75;4929893;29;20439;-71
2023/10/16 08:17:13;;;;;;;10.00;6.23;;;;;;;11.22;48.49;96670.84;4927066;29;20814;-72
2023/10/16 08:19:39;;;;;;;12.17;6.43;;;;;;;11.17;48.20;96683.34;4925640;29;20466;-69
2023/10/16 08:22:07;;;;;;;8.23;5.27;;;;;;;11.81;48.06;96676.19;4911142;29;20438;-69
2023/10/16 08:24:32;;;;;;;5.60;4.40;;;;;;;11.78;47.06;96666.69;4927047;29;20497;-70
2023/10/16 08:29:53;;;;;;;8.47;5.90;;;;;;;11.64;47.73;96666.44;4927536;29;20261;-70
2023/10/16 08:35:09;;;;;;;5.27;4.77;;;;;;;11.12;49.22;96674.75;4937013;29;20583;-70
2023/10/16 08:37:35;;;;;;;10.10;4.97;;;;;;;11.95;47.91;96667.72;4935509;29;20497;-71
2023/10/16 08:40:01;;;;;;;6.73;4.37;;;;;;;11.76;47.72;96665.88;4937226;29;20487;-71
2023/10/16 08:42:26;;;;;;;14.90;6.10;;;;;;;11.96;52.33;96666.81;4929450;29;20194;-70
2023/10/16 08:44:51;;;;;;;5.10;3.90;;;;;;;12.42;48.46;96669.97;4928528;29;20201;-70
2023/10/16 08:47:24;;;;;;;5.93;4.50;;;;;;;11.65;48.44;96668.16;4926885;29;20191;-70
2023/10/16 08:49:54;;;;;;;5.27;4.43;;;;;;;10.42;51.42;96669.72;4923143;29;20211;-70
2023/10/16 08:52:21;;;;;;;9.13;4.77;;;;;;;10.37;50.93;96665.53;4929240;29;20835;-69
2023/10/16 08:57:22;;;;;;;6.90;5.60;;;;;;;10.56;52.34;96656.94;4930651;29;21133;-70
2023/10/16 08:59:49;;;;;;;9.50;5.20;;;;;;;10.26;52.58;96657.19;4923921;28;21060;-70
2023/10/16 09:02:17;;;;;;;7.80;5.07;;;;;;;10.89;51.20;96656.47;4927469;29;20438;-70
2023/10/16 09:04:44;;;;;;;10.03;5.10;;;;;;;10.76;52.00;96659.59;4926605;29;21111;-69
2023/10/16 09:07:11;;;;;;;5.37;4.87;;;;;;;10.66;51.73;96652.19;4930536;29;20473;-71
2023/10/16 09:09:41;;;;;;;5.47;4.70;;;;;;;10.60;52.13;96655.88;4923673;28;20454;-71
2023/10/16 09:12:10;;;;;;;9.87;4.90;;;;;;;11.40;50.33;96656.06;4924076;29;20534;-73
2023/10/16 09:14:39;;;;;;;4.50;4.10;;;;;;;11.39;50.49;96648.25;4923093;29;20974;-69
2023/10/16 09:17:08;;;;;;;4.93;4.27;;;;;;;11.64;49.41;96650.66;4911336;29;20431;-72
2023/10/16 09:19:34;;;;;;;6.57;4.30;;;;;;;11.83;48.52;96651.56;4928250;29;20546;-70
2023/10/16 09:22:09;;;;;;;6.23;4.43;;;;;;;12.19;48.53;96647.34;4925039;29;20549;-70
2023/10/16 09:24:35;;;;;;;6.33;4.63;;;;;;;11.84;49.39;96648.00;4928003;29;20207;-68
2023/10/16 09:27:10;;;;;;;5.97;5.37;;;;;;;12.36;47.42;96655.31;4927589;29;20442;-69
2023/10/16 09:29:35;;;;;;;5.60;5.00;;;;;;;11.75;49.29;96652.81;4909872;29;20549;-68
2023/10/16 09:32:02;;;;;;;5.73;5.23;;;;;;;11.59;50.53;96648.22;4928628;29;20527;-70
2023/10/16 09:34:28;;;;;;;7.87;4.97;;;;;;;12.13;48.68;96651.13;4913254;29;20662;-69
2023/10/16 09:37:36;;;;;;;4.67;4.20;;;;;;;12.06;48.54;96658.44;4927065;29;20515;-70
2023/10/16 09:39:52;;;;;;;5.00;4.57;;;;;;;11.22;51.10;96659.50;4926785;29;20214;-69
2023/10/16 09:42:24;;;;;;;5.87;5.17;;;;;;;10.11;53.78;96658.63;4923835;29;20426;-69
2023/10/16 09:44:56;;;;;;;5.20;4.70;;;;;;;10.75;53.42;96655.28;4928660;29;20540;-70
2023/10/16 09:47:25;;;;;;;6.20;5.37;;;;;;;11.59;50.54;96642.13;4927994;29;21001;-68
2023/10/16 09:49:53;;;;;;;6.20;5.60;;;;;;;11.75;50.85;96647.56;4926705;29;20465;-69
2023/10/16 09:52:20;;;;;;;5.83;4.87;;;;;;;11.44;51.19;96644.50;4927396;29;21125;-69
2023/10/16 09:54:49;;;;;;;7.00;5.20;;;;;;;11.50;51.08;96640.75;4927070;29;20438;-69
2023/10/16 09:57:27;;;;;;;10.30;5.67;;;;;;;11.31;51.10;96645.09;4931145;29;20444;-69
2023/10/16 10:00:00;;;;;;;6.77;5.20;;;;;;;10.63;53.42;96647.91;4926104;29;20497;-68
2023/10/16 10:02:26;;;;;;;6.77;6.17;;;;;;;10.40;54.22;96645.34;4926133;29;20435;-70
2023/10/16 10:05:08;;;;;;;6.10;4.97;;;;;;;10.62;54.36;96642.72;4908462;29;20443;-71
2023/10/16 10:07:38;;;;;;;11.53;6.27;;;;;;;11.16;52.68;96641.34;4922411;29;20434;-70
2023/10/16 10:13:02;;;;;;;7.80;5.70;;;;;;;10.73;53.68;96643.16;4925995;29;21299;-70
2023/10/16 10:15:34;;;;;;;12.30;6.27;;;;;;;11.05;53.28;96630.44;4909316;29;20549;-70
2023/10/16 10:18:31;;;;;;;13.13;8.20;;;;;;;11.49;52.90;96628.53;4930989;29;20434;-70
2023/10/16 10:20:48;;;;;;;6.73;5.33;;;;;;;12.10;50.19;96622.34;4927067;29;20573;-70
2023/10/16 10:23:15;;;;;;;6.67;5.83;;;;;;;11.81;51.18;96623.63;4927669;29;20477;-70
2023/10/16 10:25:41;;;;;;;11.10;6.43;;;;;;;11.75;52.38;96618.66;4927031;29;21009;-70
2023/10/16 10:28:25;;;;;;;6.13;5.30;;;;;;;11.62;51.29;96616.56;4927212;29;20525;-70
2023/10/16 10:30:54;;;;;;;7.17;5.63;;;;;;;11.05;52.16;96615.53;4926601;29;20218;-70
2023/10/16 10:33:38;;;;;;;6.73;6.03;;;;;;;11.04;52.98;96613.84;4928084;29;20435;-71
2023/10/16 10:36:30;;;;;;;6.90;6.30;;;;;;;11.25;53.23;96614.69;4927175;29;20536;-71
2023/10/16 10:39:39;;;;;;;13.33;6.30;;;;;;;12.40;50.33;96608.63;4926416;29;20454;-71
2023/10/16 10:42:08;;;;;;;6.50;5.40;;;;;;;12.32;48.00;96609.00;4926400;29;20791;-70
2023/10/16 10:44:44;;;;;;;6.10;5.50;;;;;;;11.83;48.66;96606.88;4926398;29;20442;-69
2023/10/16 10:47:24;;;;;;;7.60;5.57;;;;;;;11.26;50.42;96605.88;4911461;29;20853;-68
2023/10/16 10:49:51;;;;;;;7.10;5.57;;;;;;;10.83;51.12;96604.25;4925376;29;20586;-69
2023/10/16 10:52:19;;;;;;;7.40;4.33;;;;;;;10.71;50.98;96600.34;4928002;29;20453;-70
2023/10/16 10:54:48;;;;;;;4.87;4.33;;;;;;;10.64;50.54;96593.66;4926195;29;20460;-69
2023/10/16 10:57:24;;;;;;;4.83;4.10;;;;;;;10.35;51.96;96595.69;4929043;29;20521;-70
2023/10/16 10:59:55;;;;;;;6.80;3.77;;;;;;;11.05;51.01;96589.28;4926453;29;20864;-70
2023/10/16 11:04:59;;;;;;;5.67;3.97;;;;;;;12.06;47.96;96570.78;4927287;29;20505;-70
2023/10/16 11:07:45;;;;;;;12.00;5.07;;;;;;;12.36;45.68;96575.53;4923992;29;20438;-68
2023/10/16 11:10:15;;;;;;;5.63;4.60;;;;;;;12.11;47.22;96566.16;4909248;29;20516;-69
2023/10/16 11:12:44;;;;;;;5.17;4.67;;;;;;;11.85;48.46;96570.81;4925426;29;20634;-68
2023/10/16 11:15:19;;;;;;;6.33;5.57;;;;;;;10.88;51.30;96573.41;4925170;29;20434;-69
2023/10/16 11:17:46;;;;;;;5.73;4.60;;;;;;;10.62;52.42;96569.22;4925155;29;20999;-70
2023/10/16 11:20:27;;;;;;;6.00;4.70;;;;;;;11.06;50.83;96570.00;4924399;28;20532;-70
2023/10/16 11:22:59;;;;;;;5.30;4.80;;;;;;;11.11;51.10;96565.38;4927851;29;21088;-70
2023/10/16 11:25:31;;;;;;;4.70;4.10;;;;;;;11.44;49.78;96564.81;4924384;29;20442;-71
2023/10/16 11:28:07;;;;;;;7.07;4.90;;;;;;;11.65;49.63;96565.63;4923525;29;20442;-72
2023/10/16 11:30:38;;;;;;;6.10;4.30;;;;;;;11.86;48.34;96555.91;4909785;29;20706;-70
2023/10/16 11:33:04;;;;;;;8.70;5.17;;;;;;;12.66;58.16;96549.44;4926544;29;20454;-69
2023/10/16 11:35:34;;;;;;;5.80;4.50;;;;;;;12.26;51.39;96548.81;4909741;29;20441;-69
2023/10/16 11:37:59;;;;;;;4.37;3.97;;;;;;;12.39;47.10;96542.00;4926098;29;20451;-69
2023/10/16 11:40:33;;;;;;;7.77;5.07;;;;;;;12.39;49.07;96542.00;4925634;29;20508;-69
2023/10/16 11:43:00;;;;;;;13.10;4.67;;;;;;;12.34;48.08;96544.00;4925567;29;20297;-70
2023/10/16 11:45:30;;;;;;;12.13;4.87;;;;;;;11.91;51.12;96527.66;4926841;29;20481;-70
2023/10/16 11:50:41;;;;;;;7.50;3.87;;;;;;;11.81;48.91;96518.44;4925109;29;20457;-71
2023/10/16 11:53:07;;;;;;;6.73;4.43;;;;;;;11.51;48.27;96521.56;4926407;29;20571;-71
2023/10/16 11:55:37;;;;;;;8.80;4.70;;;;;;;11.69;48.17;96511.13;4926586;29;20452;-69
2023/10/16 11:58:06;;;;;;;5.43;3.90;;;;;;;11.57;48.58;96513.41;4928424;29;20451;-71
2023/10/16 12:00:35;;;;;;;11.77;4.77;;;;;;;11.47;48.79;96514.75;4928753;29;20552;-70
2023/10/16 12:03:07;;;;;;;6.43;4.77;;;;;;;11.48;49.51;96507.72;4929482;29;20937;-72
2023/10/16 12:05:36;;;;;;;5.43;3.60;;;;;;;11.65;48.20;96499.91;4928323;29;20442;-71
2023/10/16 12:08:02;;;;;;;4.30;3.70;;;;;;;11.71;46.83;96497.00;4927582;29;20477;-70
2023/10/16 12:10:29;;;;;;;4.43;3.53;;;;;;;11.92;46.28;96499.56;4928502;29;20461;-71
2023/10/16 12:12:58;;;;;;;4.13;3.57;;;;;;;11.54;47.24;96503.03;4928016;29;20497;-70
2023/10/16 12:15:25;;;;;;;6.23;5.13;;;;;;;11.29;48.22;96503.31;4925778;29;20443;-71
2023/10/16 12:17:53;;;;;;;5.37;4.87;;;;;;;11.12;49.49;96497.94;4926415;29;21349;-69
2023/10/16 12:20:21;;;;;;;8.80;5.53;;;;;;;11.15;49.10;96485.53;4927581;29;20509;-70
2023/10/16 12:22:48;;;;;;;5.53;4.17;;;;;;;11.34;49.41;96477.69;4926141;29;20475;-70
2023/10/16 12:25:13;;;;;;;4.30;3.90;;;;;;;11.33;49.56;96467.22;4928154;29;20886;-69
2023/10/16 12:27:39;;;;;;;6.87;4.40;;;;;;;11.68;48.66;96477.91;4911366;29;20438;-70
2023/10/16 12:30:05;;;;;;;5.20;4.70;;;;;;;11.66;49.27;96477.94;4910137;29;20206;-71
2023/10/16 12:32:31;;;;;;;5.30;4.03;;;;;;;11.29;49.29;96470.91;4928146;29;20191;-71
2023/10/16 12:35:00;;;;;;;5.37;4.73;;;;;;;11.03;50.16;96467.69;4928232;29;20902;-70
2023/10/16 12:37:27;;;;;;;12.90;4.57;;;;;;;11.07;50.32;96464.00;4926559;29;20478;-70
2023/10/16 12:39:54;;;;;;;5.13;4.50;;;;;;;11.30;49.56;96449.00;4909502;29;20459;-70
2023/10/16 12:42:20;;;;;;;5.53;4.73;;;;;;;11.48;50.75;96455.16;4927543;29;20506;-69
2023/10/16 12:44:45;;;;;;;7.07;5.50;;;;;;;11.48;49.41;96445.53;4927969;29;20855;-71
2023/10/16 12:47:14;;;;;;;5.70;4.70;;;;;;;11.47;49.63;96458.72;4925409;29;20191;-70
2023/10/16 12:49:39;;;;;;;10.30;4.97;;;;;;;11.60;49.79;96444.09;4926161;29;20319;-70
2023/10/16 12:52:10;;;;;;;5.03;4.53;;;;;;;11.57;49.29;96442.44;4926017;29;20475;-70
2023/10/16 12:54:43;;;;;;;6.80;5.07;;;;;;;11.43;49.39;96444.84;4922743;29;20297;-69
2023/10/16 12:57:09;;;;;;;6.57;4.30;;;;;;;11.22;49.72;96437.06;4925142;29;20445;-70
2023/10/16 12:59:36;;;;;;;5.63;4.67;;;;;;;11.47;49.71;96435.91;4925703;29;20466;-71
2023/10/16 13:02:04;;;;;;;7.90;4.90;;;;;;;11.64;49.20;96429.84;4926061;29;20199;-71
2023/10/16 13:04:33;;;;;;;11.60;5.57;;;;;;;11.57;49.14;96439.81;4927974;29;21001;-71
2023/10/16 13:06:59;;;;;;;5.50;3.80;;;;;;;11.35;50.04;96416.31;4910666;29;20430;-71
2023/10/16 13:09:25;;;;;;;5.43;4.50;;;;;;;11.11;50.54;96415.69;4927870;29;21466;-70
2023/10/16 13:11:50;;;;;;;5.57;4.57;;;;;;;11.53;49.77;96411.13;4927753;29;20438;-71
2023/10/16 13:14:17;;;;;;;6.07;4.30;;;;;;;11.50;49.38;96421.78;4927412;29;20191;-70
2023/10/16 13:16:53;;;;;;;5.90;4.97;;;;;;;11.12;49.42;96414.75;4910064;29;20183;-71
2023/10/16 13:19:19;;;;;;;6.30;4.87;;;;;;;11.37;50.12;96418.88;4921283;29;20438;-71
2023/10/16 13:21:46;;;;;;;7.53;4.67;;;;;;;11.38;50.23;96420.56;4928096;29;20466;-70
2023/10/16 13:24:13;;;;;;;5.50;4.43;;;;;;;11.47;48.50;96414.88;4926618;29;20452;-70
2023/10/16 13:26:42;;;;;;;4.87;3.77;;;;;;;11.27;49.45;96412.34;4926740;29;20445;-70
2023/10/16 13:29:16;;;;;;;5.30;4.80;;;;;;;11.39;49.95;96414.41;4927124;29;20895;-71
2023/10/16 13:31:45;;;;;;;5.67;5.10;;;;;;;11.51;49.59;96411.19;4926308;29;20898;-72
2023/10/16 13:34:13;;;;;;;5.80;5.20;;;;;;;11.54;49.69;96416.31;4927842;29;20573;-70
2023/10/16 13:36:42;;;;;;;5.00;4.50;;;;;;;11.47;50.48;96408.78;4909762;29;20521;-70
2023/10/16 13:39:10;;;;;;;6.83;4.53;;;;;;;11.43;50.34;96413.31;4926396;29;20921;-71